LPPS

Porto Santo Airport

Vila Baleira, Portugal
TAF LPPS 182300Z 1900/2006 35008KT 9999 SCT015 BKN030 TEMPO 1900/1922 BKN015 BECMG 1922/1924 31015KT 8000 SCT010 BKN020 TEMPO 2000/2004 3000 BR SCT004 BKN008 BECMG 2004/2006 9999 SCT015
Issued Valid From Valid To
Jan-18 @ 23:00 UTC
(3 hours ago)
Jan-19 @ 00:00 UTC
(2 hours ago)
Jan-20 @ 06:00 UTC
(-1 days ago)
Jan-19 @ 00:00 to Jan-19 @ 22:00
TAF LPPS 182300Z 1900/2006 35008KT 9999 SCT015 BKN030
Wind Visibility Clouds
350° at 8 knots 10,000+ meters
  • Scattered at 1,500' AGL
  • Broken at 3,000' AGL
Temporary Jan-19 @ 00:00 to Jan-19 @ 22:00
TEMPO 1900/1922 BKN015
Clouds
  • Broken at 1,500' AGL
Becoming Jan-19 @ 22:00 to Jan-20 @ 04:00
BECMG 1922/1924 31015KT 8000 SCT010 BKN020
Wind Visibility Clouds
310° at 15 knots 7,998 meters
  • Scattered at 1,000' AGL
  • Broken at 2,000' AGL
Temporary Jan-20 @ 00:00 to Jan-20 @ 04:00
TEMPO 2000/2004 3000 BR SCT004 BKN008
Visibility Clouds Conditions
2,993 meters
  • Scattered at 400' AGL
  • Broken at 800' AGL
  • Mist
Becoming Jan-20 @ 04:00 to Jan-20 @ 06:00
BECMG 2004/2006 9999 SCT015
Wind Visibility Clouds
310° at 15 knots 10,000+ meters
  • Scattered at 1,500' AGL
TAF LPPS 182300Z 1900/2006 35008KT 9999 SCT015 BKN030 TEMPO 1900/1922 BKN015 BECMG 1922/1924 31015KT 8000 SCT010 BKN020 TEMPO 2000/2004 3000 BR SCT004 BKN008 BECMG 2004/2006 9999 SCT015
Issued Jan-18 @ 23:00 UTC
(3 hours ago)
Valid From Jan-19 @ 00:00 UTC
(2 hours ago)
Valid To Jan-20 @ 06:00 UTC
(-1 days ago)
Jan-19 @ 00:00 - Jan-19 @ 22:00
Wind Visibility
350° at 8 knots 10,000+ meters
Clouds
  • Scattered at 1,500' AGL
  • Broken at 3,000' AGL
Temporary Jan-19 @ 00:00 - Jan-19 @ 22:00
Clouds
  • Broken at 1,500' AGL
Becoming Jan-19 @ 22:00 - Jan-20 @ 04:00
Wind Visibility
310° at 15 knots 7,998 meters
Clouds
  • Scattered at 1,000' AGL
  • Broken at 2,000' AGL
Temporary Jan-20 @ 00:00 - Jan-20 @ 04:00
Clouds
  • Scattered at 400' AGL
  • Broken at 800' AGL
Conditions
  • Mist
Becoming Jan-20 @ 04:00 - Jan-20 @ 06:00
Wind Visibility
310° at 15 knots 10,000+ meters
Clouds
  • Scattered at 1,500' AGL